Belfair, Washington
Current Conditions -  °F | °C
As of 3:15 PM on Sunday 21 Dec 2014 (Local Time) from KPWT Reporting Station
Scattered Clouds Scattered Clouds  
Wind Chill: 52°   Ceiling: Unl
Heat Index: 52°   Visibility: 10mi
Dew Point: 46°   Wind: 16mph
Humidity: 82%   Direction: 210°SSW
Pressure: 30.02"   Gusts: 22mph
Location:  47.45°N, 122.83°W
Report Text: KPWT 212315Z AUTO 21014G19KT 10SM SCT120 11/08 A3002 RMK AO1
Loading
Personal Weather Stations






























Interactive Weather Map New forecast layout! Learn more

10-Day Weather Forecast

Advertisements
Track Severe Weather on mobile